Walla Walla, WA

12:43 AM PDT on September 02, 2014 (GMT -0700)
Eastern Oreg Regional At Pendleton | Change Station
CLOSE
Current Station
Airport
Location: Pendleton,
Elevation: 1496 ft
Nearby Weather Stations

Elev 1496 ft 45.70 °N, 118.84 °W | Updated 50 minutes ago

Clear
Clear
60 °F
Feels Like 60 °F
N
8
Wind Variable Wind from South

Today
High -- | Low -- °F
--% Chance of Precip.
Yesterday
High -- | Low -- °F
Precip. -- in
6:15 AM 7:29 PM
Waxing Crescent, 49% visible
Pressure 29.88 in
Visibility 10.0 miles
Clouds Clear
Dew Point 42 °F
Humidity 51%
Rainfall 0.00 in
Snow Depth Not available.
UV 0 out of 12
Pollen 5.60 out of 12
Air Quality Not available.
Flu Activity Not available.
METAR KPDT 020653Z AUTO 18007KT 10SM CLR 16/06 A2991 RMK AO2 SLP116 T01560056

More Conditions Fewer Conditions

Pressure 29.88 in
Visibility 10.0 miles
Clouds Clear
Dew Point 42 °F
Humidity 51%
Rainfall 0.00 in
Snow Depth Not available.
UV 0 out of 12
Pollen 5.60 out of 12
Air Quality Not available.
Flu Activity Not available.
METAR KPDT 020653Z AUTO 18007KT 10SM CLR 16/06 A2991 RMK AO2 SLP116 T01560056

More Conditions Fewer Conditions

10-Day Weather Forecast

Almanac

Astronomy

Sep. 02, 2014 Rise Set
Actual Time 6:15 AM PDT 7:29 PM PDT
Civil Twilight 5:44 AM PDT 8:00 PM PDT
Nautical Twilight 5:07 AM PDT 8:37 PM PDT
Astronomical Twilight 4:27 AM PDT 9:16 PM PDT
Moon 2:27 PM PDT No Moon Set
Length of Visible Light 14h 15m
Length of Day
13h 14m
Tomorrow will be 3m 9s shorter.
Waxing Crescent, 49% of the Moon is Illuminated
Today
Waxing Crescent
Sep 2
First Quarter
Sep 8
Full
Sep 15
Last Quarter
Sep 24
New

Today's Extremes

State Highs State Lows

Community

WunderPhotos

Upload Photos

1,749,589 photos uploaded!

WunderBlogs® & News

Nearby

Snow Depth

Station Depth Elevation
Touchet 0 in 5530 ft
Spruce Springs 1 in 5700 ft
Sourdough Gulch 0 in 4000 ft
Trough 0 in 5300 ft
Upper Wheeler 0 in 4400 ft

Earthquake Activity

City Distance Mag. Time & Date
No recent earthquake activity has been reported nearby.
Minimum magnitude displayed is 2.5.

Coastal Water Temperatures

Place Temperature
No Stations Reporting

Nearby Weather Stations